Airfield :
LOGIN :

Register | Disclaimer

   EN    FR    IT 

 










Legend :    VFR   Marginal VFR   IFR   Intensive IFR   Very Intensive IFR
Visi :
Ceiling :
>= 8 km
>= 3000ft
5 to 8 km
1000 to 3000 ft
1500m to 5 km
500 to 1000 ft
800 to 1500m
200 to 500 ft
< 800m
< 200 ft
Symbols :   Thunderstorms  Fog  Heavy snow  Heavy precipitations  Wind > 20 kt
SIGMETs :     Misc.  Thunderstorms  Icing  Turbulence  Mountain Waves  Volcanic Ashes






- Airport Elevation : 291 ft
- IATA code : ORY


LFPO - Paris-Orly

CURRENT METAR :
  • 240800Z 19005KT 9999 FEW016 SCT200 M01/M02 Q1003 NOSIG

EXPIRED METARs :
  • 240730Z 21003KT 9999 FEW035 BKN200 M01/M02 Q1003 NOSIG
  • 240700Z 21003KT 9999 FEW035 BKN130 BKN200 M01/M02 Q1002 NOSIG
  • 240630Z 24004KT 9999 FEW035 BKN130 BKN200 M01/M02 Q1002 NOSIG
  • 240600Z 24006KT 9999 BKN035 BKN200 M01/M02 Q1002 NOSIG
  • 240530Z 24005KT 9999 SCT036 M01/M02 Q1002 NOSIG

TAF TAF LFPO
Valid from the 24 at 06:00 until the 25 at 12:00 UTC


240500Z 2406/2512 24007KT CAVOK
BECMG 2409/2411 18010G20KT -RASN
PROB40
TEMPO 2411/2412 4500 -SN BKN014 BKN020
BECMG 2412/2413 4500 -RASN BKN012
PROB40
TEMPO 2412/2413 1200 -SN BKN006
TEMPO 2412/2415 2500 -RADZ BKN007
BECMG 2415/2418 24013KT 9999 NSW BKN015
PROB40
TEMPO 2417/2420 -SHRA BKN012 BKN025TCU
PROB40
TEMPO 2500/2507 4000 -SHRASN BKN008 BKN012TCU
PROB30
TEMPO 2502/2507 2500 -SHSN
BECMG 2507/2509 30010KT SCT020
PROB30
TEMPO 2507/2509 BKN012
TEMPO 2509/2512 30013G25KT
ATIS : +33 1 49 75 65 80



MET'MAP, your aeronautical weather chart ! - Copyright ORBIFLY December 2007 - Disclaimer

ORBIFLY MET'MAP TEAM :

Programming & Development : Alexandra Zaïnal
Concept & original design : Baudouin d'Aumeries
Assistance for programming : Marc-Olivier Méhu
Technical & hardware support : Manuel Goepfert

Contact : metmap@orbifly.com




SOURCES & CREDITS :

   NOAA